Time;durP1;ratioP1;P1;durP2;ratioP2;P2;SDS_P1;SDS_P2;PMS_P1;PMS_P2;Temp;Humidity;BMP_temperature;BMP_pressure;BME280_temperature;BME280_humidity;BME280_pressure;Samples;Min_cycle;Max_cycle;Signal;HPM_P1;HPM_P2
2023/10/22 00:00:00;;;;;;;2.27;1.30;;;17.30;63.00;;;;;;4975841;28;20464;-68
2023/10/22 00:02:27;;;;;;;1.90;1.50;;;17.30;63.00;;;;;;5010710;28;20532;-68
2023/10/22 00:04:54;;;;;;;1.23;1.07;;;17.30;63.00;;;;;;5015144;28;20536;-67
2023/10/22 00:07:21;;;;;;;2.83;1.40;;;17.40;63.10;;;;;;5026436;28;20866;-69
2023/10/22 00:09:48;;;;;;;2.53;1.73;;;17.40;63.00;;;;;;5029761;28;20452;-69
2023/10/22 00:12:14;;;;;;;3.67;1.47;;;17.40;63.00;;;;;;5032291;28;21129;-67
2023/10/22 00:14:43;;;;;;;3.77;1.70;;;17.40;62.90;;;;;;5020601;28;20453;-70
2023/10/22 00:17:09;;;;;;;3.63;1.30;;;17.50;63.00;;;;;;5017356;28;20496;-68
2023/10/22 00:19:36;;;;;;;2.00;1.53;;;17.50;63.80;;;;;;5020069;28;20478;-68
2023/10/22 00:22:03;;;;;;;1.60;1.50;;;17.50;63.00;;;;;;5029974;28;20779;-67
2023/10/22 00:24:30;;;;;;;3.40;1.23;;;17.50;62.80;;;;;;5039633;28;20839;-68
2023/10/22 00:26:57;;;;;;;2.00;1.40;;;17.40;62.80;;;;;;5031599;28;20488;-68
2023/10/22 00:29:24;;;;;;;1.53;1.40;;;17.50;62.90;;;;;;5032195;28;20449;-68
2023/10/22 00:31:53;;;;;;;2.27;1.40;;;17.60;62.90;;;;;;5032422;28;20465;-68
2023/10/22 00:34:19;;;;;;;3.50;1.47;;;17.60;62.60;;;;;;5013911;28;21438;-67
2023/10/22 00:36:46;;;;;;;2.60;1.27;;;17.50;62.70;;;;;;5003989;28;20838;-68
2023/10/22 00:39:13;;;;;;;2.57;1.30;;;17.50;62.90;;;;;;5017432;28;20454;-68
2023/10/22 00:41:40;;;;;;;1.30;1.20;;;17.50;62.90;;;;;;5012909;28;20453;-67
2023/10/22 00:44:07;;;;;;;2.77;1.53;;;17.50;62.90;;;;;;5014919;28;20500;-68
2023/10/22 00:46:34;;;;;;;1.47;1.27;;;17.50;62.80;;;;;;5021733;28;20972;-68
2023/10/22 00:49:03;;;;;;;2.80;1.40;;;17.50;62.80;;;;;;5031387;28;20455;-67
2023/10/22 00:51:30;;;;;;;3.07;1.63;;;17.50;62.90;;;;;;5022690;28;20454;-68
2023/10/22 00:53:57;;;;;;;3.37;1.40;;;17.50;62.80;;;;;;5010566;28;20449;-68
2023/10/22 00:56:24;;;;;;;3.80;1.27;;;17.50;63.00;;;;;;4963020;28;20450;-68
2023/10/22 00:58:53;;;;;;;1.40;1.30;;;17.50;62.90;;;;;;5012744;28;20492;-68
2023/10/22 01:01:20;;;;;;;1.77;1.30;;;17.50;63.10;;;;;;5005069;28;21012;-68
2023/10/22 01:03:48;;;;;;;3.80;1.53;;;17.50;63.10;;;;;;5025466;28;20480;-67
2023/10/22 01:06:16;;;;;;;1.77;1.57;;;17.40;63.80;;;;;;5013942;28;20997;-67
2023/10/22 01:08:44;;;;;;;1.70;1.10;;;17.30;63.20;;;;;;5014214;28;20460;-67
2023/10/22 01:11:12;;;;;;;1.63;1.30;;;17.20;63.50;;;;;;5012508;28;20461;-67
2023/10/22 01:13:40;;;;;;;2.60;1.10;;;17.20;63.80;;;;;;5022349;28;20454;-68
2023/10/22 01:16:08;;;;;;;3.93;1.70;;;17.10;64.20;;;;;;5014355;28;20458;-68
2023/10/22 01:18:35;;;;;;;1.30;1.20;;;17.10;64.40;;;;;;5031050;28;20497;-68
2023/10/22 01:21:03;;;;;;;2.77;1.60;;;17.00;64.30;;;;;;5030601;28;20809;-67
2023/10/22 01:23:35;;;;;;;2.90;1.30;;;17.00;64.60;;;;;;5023701;28;20459;-67
2023/10/22 01:26:03;;;;;;;1.77;1.47;;;17.00;64.70;;;;;;5017075;28;20458;-68
2023/10/22 01:28:30;;;;;;;2.30;1.30;;;17.00;65.00;;;;;;5027500;28;20461;-68
2023/10/22 01:30:57;;;;;;;4.63;1.50;;;17.00;65.20;;;;;;5026559;28;20540;-68
2023/10/22 01:33:24;;;;;;;3.43;1.57;;;16.90;65.20;;;;;;5021553;28;20450;-67
2023/10/22 01:35:51;;;;;;;2.43;1.53;;;16.80;65.30;;;;;;5025953;28;20456;-67
2023/10/22 01:38:18;;;;;;;1.73;1.20;;;16.80;65.50;;;;;;5030201;28;20496;-68
2023/10/22 01:40:46;;;;;;;2.67;1.23;;;16.80;65.60;;;;;;5034749;28;20470;-67
2023/10/22 01:43:13;;;;;;;2.57;1.60;;;16.80;65.60;;;;;;5036367;28;20450;-67
2023/10/22 01:45:40;;;;;;;3.40;1.17;;;16.80;65.60;;;;;;5032394;28;20550;-68
2023/10/22 01:48:07;;;;;;;2.93;1.37;;;16.80;65.70;;;;;;5032617;28;20441;-68
2023/10/22 01:50:34;;;;;;;2.33;1.43;;;16.80;65.70;;;;;;5020151;28;20486;-68
2023/10/22 01:53:02;;;;;;;3.20;1.30;;;16.90;65.60;;;;;;5012547;28;20442;-68
2023/10/22 01:55:30;;;;;;;2.50;1.57;;;16.80;65.60;;;;;;5029013;28;20468;-68
2023/10/22 01:57:58;;;;;;;3.23;1.80;;;16.90;65.70;;;;;;5018950;28;20487;-68
2023/10/22 02:00:25;;;;;;;4.07;1.40;;;16.90;65.60;;;;;;5031263;28;20949;-69
2023/10/22 02:02:52;;;;;;;3.07;1.67;;;16.90;65.60;;;;;;5031906;28;20608;-68
2023/10/22 02:05:19;;;;;;;1.93;1.30;;;16.90;65.50;;;;;;5013941;28;20454;-68
2023/10/22 02:07:46;;;;;;;1.63;1.20;;;16.90;65.70;;;;;;5012051;28;20933;-68
2023/10/22 02:10:13;;;;;;;3.30;1.40;;;16.80;65.80;;;;;;5028696;28;20476;-68
2023/10/22 02:12:40;;;;;;;2.43;1.07;;;16.80;65.80;;;;;;5030506;28;20801;-68
2023/10/22 02:15:09;;;;;;;2.00;1.40;;;16.80;65.80;;;;;;5023175;28;20450;-68
2023/10/22 02:17:37;;;;;;;1.77;1.37;;;16.80;65.80;;;;;;5011314;28;20481;-67
2023/10/22 02:20:08;;;;;;;3.27;1.20;;;16.80;65.90;;;;;;5024297;28;20539;-68
2023/10/22 02:22:36;;;;;;;1.87;1.30;;;16.80;65.80;;;;;;5027234;28;20459;-67
2023/10/22 02:25:03;;;;;;;3.00;1.43;;;16.80;66.00;;;;;;5029619;28;20448;-69
2023/10/22 02:27:30;;;;;;;3.17;1.47;;;16.70;66.20;;;;;;5017634;28;20461;-68
2023/10/22 02:29:57;;;;;;;1.87;1.33;;;16.70;66.30;;;;;;5026712;28;20460;-68
2023/10/22 02:32:25;;;;;;;2.27;1.50;;;16.70;66.30;;;;;;5013155;28;20446;-67
2023/10/22 02:34:52;;;;;;;4.73;1.70;;;16.70;66.20;;;;;;4969193;28;20797;-68
2023/10/22 02:37:19;;;;;;;2.10;1.33;;;16.80;66.20;;;;;;5027009;28;20456;-67
2023/10/22 02:39:46;;;;;;;1.73;1.30;;;16.80;66.10;;;;;;5029535;28;21200;-67
2023/10/22 02:42:13;;;;;;;3.07;1.53;;;16.80;66.90;;;;;;5030031;28;20507;-67
2023/10/22 02:44:40;;;;;;;3.63;1.47;;;16.70;66.20;;;;;;5026884;28;20437;-68
2023/10/22 02:47:07;;;;;;;6.33;1.70;;;16.70;66.20;;;;;;5010479;28;20980;-68
2023/10/22 02:49:35;;;;;;;3.13;1.40;;;16.70;66.10;;;;;;5011773;28;20509;-67
2023/10/22 02:52:03;;;;;;;2.50;1.20;;;16.80;66.30;;;;;;5015526;28;20445;-67
2023/10/22 02:54:31;;;;;;;3.23;1.67;;;16.80;66.20;;;;;;5028699;28;20827;-67
2023/10/22 02:56:58;;;;;;;1.70;1.40;;;16.80;66.30;;;;;;5010372;28;20537;-68
2023/10/22 02:59:25;;;;;;;2.67;1.50;;;16.70;66.20;;;;;;5020226;28;20488;-67
2023/10/22 03:01:51;;;;;;;3.90;1.57;;;16.70;66.20;;;;;;5026418;28;20472;-68
2023/10/22 03:04:18;;;;;;;3.33;1.40;;;16.70;66.40;;;;;;5010561;28;20822;-68
2023/10/22 03:06:46;;;;;;;3.47;1.20;;;16.70;66.30;;;;;;5012926;28;20455;-68
2023/10/22 03:09:14;;;;;;;2.03;1.27;;;16.70;66.50;;;;;;5019677;28;20785;-69
2023/10/22 03:11:41;;;;;;;2.57;1.23;;;16.70;67.40;;;;;;5026957;28;20457;-68
2023/10/22 03:14:08;;;;;;;1.40;1.30;;;16.60;66.50;;;;;;5018359;28;20461;-68
2023/10/22 03:16:35;;;;;;;2.00;1.33;;;16.60;66.70;;;;;;5012178;28;20458;-68
2023/10/22 03:19:02;;;;;;;1.80;1.40;;;16.60;66.70;;;;;;5013356;28;20481;-67
2023/10/22 03:21:35;;;;;;;1.50;1.40;;;16.60;66.80;;;;;;5022497;28;20473;-67
2023/10/22 03:24:03;;;;;;;1.70;1.30;;;16.50;66.90;;;;;;5029821;28;20461;-68
2023/10/22 03:26:31;;;;;;;1.23;1.00;;;16.50;67.00;;;;;;5023253;28;20533;-68
2023/10/22 03:28:57;;;;;;;1.30;1.20;;;16.50;67.10;;;;;;5019277;28;21124;-69
2023/10/22 03:31:25;;;;;;;2.20;1.30;;;16.40;67.10;;;;;;5020068;28;20556;-68
2023/10/22 03:33:52;;;;;;;4.80;1.47;;;16.40;67.40;;;;;;5047962;28;20450;-68
2023/10/22 03:36:19;;;;;;;2.07;1.63;;;16.30;67.40;;;;;;5026019;28;20448;-67
2023/10/22 03:38:45;;;;;;;2.40;1.40;;;16.30;67.50;;;;;;4979514;28;21177;-67
2023/10/22 03:41:14;;;;;;;1.40;1.20;;;16.40;67.50;;;;;;5030931;28;20458;-67
2023/10/22 03:43:41;;;;;;;2.17;1.57;;;16.40;67.50;;;;;;5023141;28;21037;-67
2023/10/22 03:46:08;;;;;;;2.67;1.40;;;16.30;67.50;;;;;;5027443;28;20449;-68
2023/10/22 03:48:34;;;;;;;2.57;1.47;;;16.30;67.50;;;;;;5034577;28;20441;-67
2023/10/22 03:51:03;;;;;;;3.07;1.37;;;16.30;67.50;;;;;;5020136;28;20454;-67
2023/10/22 03:53:30;;;;;;;2.23;1.40;;;16.40;67.50;;;;;;5026994;28;20457;-68
2023/10/22 03:55:56;;;;;;;4.23;1.30;;;16.40;67.30;;;;;;5017204;28;21097;-68
2023/10/22 03:58:25;;;;;;;2.80;1.10;;;16.40;67.20;;;;;;5014949;28;20991;-67
2023/10/22 04:00:54;;;;;;;2.30;1.33;;;16.40;67.20;;;;;;5030752;28;20461;-67
2023/10/22 04:03:21;;;;;;;2.67;1.43;;;16.40;67.30;;;;;;5034517;28;20488;-68
2023/10/22 04:05:55;;;;;;;2.47;1.37;;;16.40;67.10;;;;;;5025419;28;20449;-68
2023/10/22 04:08:23;;;;;;;2.50;1.40;;;16.40;67.50;;;;;;5017585;28;20477;-68
2023/10/22 04:10:50;;;;;;;2.27;1.53;;;16.40;67.50;;;;;;5014353;28;20454;-68
2023/10/22 04:13:16;;;;;;;3.40;2.23;;;16.30;67.60;;;;;;5014236;28;20453;-68
2023/10/22 04:15:45;;;;;;;1.57;1.27;;;16.30;67.50;;;;;;5014376;28;20454;-68
2023/10/22 04:18:12;;;;;;;2.57;1.60;;;16.30;67.70;;;;;;5015557;28;20941;-68
2023/10/22 04:20:40;;;;;;;1.57;1.43;;;16.20;67.70;;;;;;5031978;28;20513;-68
2023/10/22 04:23:08;;;;;;;3.10;1.23;;;16.20;67.70;;;;;;5028968;28;20547;-67
2023/10/22 04:25:37;;;;;;;2.13;1.30;;;16.20;67.60;;;;;;5028907;28;20460;-68
2023/10/22 04:28:04;;;;;;;2.73;1.60;;;16.30;67.60;;;;;;5032637;28;20446;-69
2023/10/22 04:30:31;;;;;;;1.73;1.30;;;16.20;67.40;;;;;;5030899;28;20854;-68
2023/10/22 04:33:01;;;;;;;2.10;1.57;;;16.20;67.40;;;;;;5021039;28;20473;-68
2023/10/22 04:35:29;;;;;;;1.70;1.47;;;16.20;67.60;;;;;;5024285;28;20464;-68
2023/10/22 04:37:56;;;;;;;1.70;1.10;;;16.20;67.60;;;;;;5012882;28;20516;-67
2023/10/22 04:40:26;;;;;;;2.10;1.50;;;16.20;67.70;;;;;;5017439;28;20456;-68
2023/10/22 04:42:55;;;;;;;2.77;1.27;;;16.10;68.50;;;;;;5013621;28;20465;-68
2023/10/22 04:45:22;;;;;;;2.63;1.50;;;16.10;67.90;;;;;;5024520;28;20454;-68
2023/10/22 04:47:49;;;;;;;2.77;1.23;;;16.10;68.10;;;;;;5032832;28;20473;-68
2023/10/22 04:50:17;;;;;;;3.33;1.50;;;16.00;67.80;;;;;;5019062;28;20456;-67
2023/10/22 04:52:44;;;;;;;1.17;1.07;;;16.10;68.00;;;;;;5014092;28;20442;-68
2023/10/22 04:55:11;;;;;;;3.53;1.40;;;16.00;67.90;;;;;;5022113;28;20853;-68
2023/10/22 04:57:39;;;;;;;1.93;1.20;;;16.00;68.00;;;;;;5019868;28;20445;-67
2023/10/22 05:00:07;;;;;;;2.43;1.40;;;15.90;68.00;;;;;;5033082;28;20496;-68
2023/10/22 05:02:34;;;;;;;2.20;1.80;;;15.90;68.10;;;;;;5032068;28;20464;-68
2023/10/22 05:05:01;;;;;;;1.93;1.53;;;15.90;68.30;;;;;;5032812;28;20559;-68
2023/10/22 05:07:29;;;;;;;2.20;1.33;;;15.80;68.20;;;;;;5019386;28;20978;-68
2023/10/22 05:09:56;;;;;;;2.47;1.40;;;15.80;68.20;;;;;;5029876;28;20459;-67
2023/10/22 05:12:24;;;;;;;3.40;1.50;;;15.80;68.30;;;;;;5032751;28;20472;-67
2023/10/22 05:14:50;;;;;;;2.43;1.40;;;15.80;68.20;;;;;;5029095;28;20455;-68
2023/10/22 05:17:17;;;;;;;2.07;1.50;;;15.90;68.30;;;;;;5013414;28;20445;-67
2023/10/22 05:19:44;;;;;;;3.10;1.63;;;15.90;68.30;;;;;;5014016;28;20544;-67
2023/10/22 05:22:11;;;;;;;3.03;1.67;;;15.80;68.20;;;;;;5026454;28;20511;-68
2023/10/22 05:24:39;;;;;;;3.03;1.50;;;15.80;68.30;;;;;;5031866;28;20457;-68
2023/10/22 05:27:07;;;;;;;3.17;1.23;;;15.90;68.30;;;;;;5012595;28;20488;-68
2023/10/22 05:29:37;;;;;;;2.33;1.30;;;15.90;68.30;;;;;;5014967;28;20544;-67
2023/10/22 05:32:05;;;;;;;4.57;1.60;;;15.90;68.10;;;;;;5012195;28;20456;-67
2023/10/22 05:34:33;;;;;;;3.33;1.40;;;15.90;68.20;;;;;;5024445;28;20487;-67
2023/10/22 05:36:59;;;;;;;2.77;1.10;;;15.80;68.20;;;;;;5029717;28;20477;-67
2023/10/22 05:39:26;;;;;;;1.77;1.30;;;15.80;68.20;;;;;;5027830;28;20474;-68
2023/10/22 05:41:54;;;;;;;2.83;1.50;;;15.70;68.40;;;;;;5013066;28;20453;-68
2023/10/22 05:44:24;;;;;;;3.03;1.57;;;15.70;68.70;;;;;;5014234;28;20965;-68
2023/10/22 05:46:51;;;;;;;3.30;1.53;;;15.60;68.70;;;;;;5013233;28;20565;-68
2023/10/22 05:49:20;;;;;;;1.53;1.03;;;15.70;68.80;;;;;;5019021;28;20442;-68
2023/10/22 05:51:48;;;;;;;5.00;2.20;;;15.70;68.70;;;;;;5019672;28;20460;-67
2023/10/22 05:54:14;;;;;;;4.27;1.40;;;15.80;68.60;;;;;;5022321;28;20449;-67
2023/10/22 05:56:41;;;;;;;3.77;1.40;;;15.80;68.40;;;;;;5013308;28;20460;-68
2023/10/22 05:59:10;;;;;;;1.17;0.97;;;15.80;68.30;;;;;;5031566;28;20502;-68
2023/10/22 06:01:38;;;;;;;3.30;1.07;;;15.80;68.30;;;;;;5029245;28;20472;-68
2023/10/22 06:04:06;;;;;;;2.77;1.10;;;15.80;68.20;;;;;;5030170;28;20451;-68
2023/10/22 06:06:32;;;;;;;3.83;1.77;;;15.90;68.30;;;;;;5018729;28;20488;-68
2023/10/22 06:09:00;;;;;;;2.57;1.33;;;15.80;69.10;;;;;;4969557;28;20454;-68
2023/10/22 06:11:27;;;;;;;1.70;1.20;;;15.80;68.50;;;;;;5026384;28;20458;-68
2023/10/22 06:13:53;;;;;;;2.23;1.40;;;15.80;68.50;;;;;;5031126;28;20449;-68
2023/10/22 06:16:22;;;;;;;4.80;1.43;;;15.80;68.50;;;;;;5015773;28;20488;-68
2023/10/22 06:18:49;;;;;;;2.30;1.40;;;15.90;68.60;;;;;;5025017;28;20492;-67
2023/10/22 06:21:16;;;;;;;4.87;1.90;;;15.90;68.40;;;;;;5028227;28;20471;-68
2023/10/22 06:23:44;;;;;;;2.77;1.43;;;16.00;68.50;;;;;;5021780;28;20454;-67
2023/10/22 06:26:11;;;;;;;2.20;1.40;;;16.00;68.50;;;;;;5029837;28;20448;-67
2023/10/22 06:28:38;;;;;;;2.80;1.47;;;16.00;68.50;;;;;;5028338;28;20476;-68
2023/10/22 06:31:07;;;;;;;4.53;1.80;;;16.10;68.60;;;;;;5029439;28;20852;-68
2023/10/22 06:33:36;;;;;;;2.50;1.50;;;16.10;68.60;;;;;;5027353;28;20481;-67
2023/10/22 06:36:12;;;;;;;3.67;1.60;;;16.20;68.70;;;;;;5019302;28;20508;-67
2023/10/22 06:38:39;;;;;;;2.97;1.43;;;16.10;68.60;;;;;;5012505;28;20476;-67
2023/10/22 06:41:12;;;;;;;1.40;1.07;;;16.20;68.70;;;;;;5011860;28;20470;-67
2023/10/22 06:43:39;;;;;;;3.53;1.23;;;16.30;68.80;;;;;;5024421;28;20453;-68
2023/10/22 06:46:05;;;;;;;2.23;1.40;;;16.30;68.70;;;;;;5014503;28;20457;-68
2023/10/22 06:48:32;;;;;;;1.87;1.13;;;16.30;68.50;;;;;;5030649;28;20864;-67
2023/10/22 06:51:02;;;;;;;4.00;2.17;;;16.40;68.60;;;;;;5020252;28;20464;-68
2023/10/22 06:53:29;;;;;;;2.87;1.47;;;16.40;68.50;;;;;;5031144;28;20480;-68
2023/10/22 06:55:56;;;;;;;2.63;1.30;;;16.50;68.60;;;;;;5028040;28;20851;-67
2023/10/22 06:58:23;;;;;;;1.90;1.30;;;16.50;68.70;;;;;;5001295;28;20453;-68
2023/10/22 07:00:51;;;;;;;2.47;1.10;;;16.50;68.60;;;;;;4983580;28;20620;-68
2023/10/22 07:03:18;;;;;;;2.10;1.23;;;16.60;68.80;;;;;;5030223;28;20464;-68
2023/10/22 07:05:45;;;;;;;2.90;1.50;;;16.60;68.60;;;;;;5030314;28;20449;-68
2023/10/22 07:08:15;;;;;;;2.60;1.50;;;16.60;68.30;;;;;;5030722;28;20922;-68
2023/10/22 07:10:43;;;;;;;3.23;1.70;;;16.60;68.50;;;;;;5020736;28;20464;-66
2023/10/22 07:13:10;;;;;;;3.53;1.47;;;16.70;68.30;;;;;;5026547;28;20473;-67
2023/10/22 07:15:37;;;;;;;4.37;1.40;;;16.60;67.90;;;;;;5025694;28;20462;-68
2023/10/22 07:18:03;;;;;;;3.83;1.37;;;16.70;67.90;;;;;;5023788;28;20476;-67
2023/10/22 07:20:30;;;;;;;4.20;1.20;;;16.70;67.70;;;;;;5032862;28;20947;-68
2023/10/22 07:22:58;;;;;;;2.33;1.17;;;16.70;67.20;;;;;;5023754;28;20889;-68
2023/10/22 07:25:26;;;;;;;3.33;1.60;;;16.80;67.20;;;;;;5028199;28;20525;-66
2023/10/22 07:27:53;;;;;;;3.40;1.33;;;16.90;66.80;;;;;;5024091;28;20536;-68
2023/10/22 07:30:20;;;;;;;4.80;1.30;;;16.90;66.70;;;;;;5023003;28;20450;-68
2023/10/22 07:32:50;;;;;;;4.70;1.43;;;16.90;66.60;;;;;;5025756;28;20495;-68
2023/10/22 07:35:17;;;;;;;4.97;1.43;;;17.00;66.50;;;;;;5035629;28;20441;-69
2023/10/22 07:37:44;;;;;;;2.97;1.10;;;17.00;66.20;;;;;;5030407;28;20476;-68
2023/10/22 07:40:13;;;;;;;4.33;1.50;;;17.00;66.00;;;;;;5027666;28;20487;-68
2023/10/22 07:42:41;;;;;;;2.17;1.40;;;17.10;66.10;;;;;;5026146;28;20869;-68
2023/10/22 07:45:09;;;;;;;5.80;1.53;;;17.00;66.00;;;;;;5027755;28;20472;-68
2023/10/22 07:47:38;;;;;;;2.93;1.20;;;17.00;66.00;;;;;;5031811;28;20453;-68
2023/10/22 07:50:07;;;;;;;3.07;1.33;;;17.00;65.80;;;;;;5027166;28;20453;-67
2023/10/22 07:52:36;;;;;;;2.97;1.40;;;17.00;65.70;;;;;;4985797;28;20459;-67
2023/10/22 07:55:03;;;;;;;5.50;1.40;;;17.00;65.60;;;;;;5024550;28;20486;-68
2023/10/22 07:57:30;;;;;;;3.13;1.40;;;17.00;66.00;;;;;;5027146;28;20969;-67
2023/10/22 07:59:58;;;;;;;5.17;1.70;;;17.00;65.50;;;;;;5030904;28;20481;-68
2023/10/22 08:02:25;;;;;;;4.33;1.63;;;17.10;65.90;;;;;;5027227;28;20476;-67
2023/10/22 08:04:51;;;;;;;2.40;1.20;;;17.20;65.60;;;;;;5032718;28;20468;-68
2023/10/22 08:07:18;;;;;;;3.33;1.20;;;17.20;65.60;;;;;;5032083;28;20451;-68
2023/10/22 08:09:45;;;;;;;4.67;1.57;;;17.40;65.30;;;;;;5024371;28;20203;-69
2023/10/22 08:12:12;;;;;;;3.30;1.33;;;17.50;64.80;;;;;;5026978;28;20203;-68
2023/10/22 08:14:39;;;;;;;2.93;1.30;;;17.60;64.90;;;;;;5019913;28;20446;-68
2023/10/22 08:17:07;;;;;;;3.13;1.37;;;17.80;64.40;;;;;;5031068;28;20473;-68
2023/10/22 08:19:34;;;;;;;3.80;1.20;;;17.90;64.20;;;;;;5034256;28;20495;-69
2023/10/22 08:22:01;;;;;;;2.07;1.17;;;18.00;63.10;;;;;;5033839;28;20471;-70
2023/10/22 08:24:29;;;;;;;2.63;1.40;;;18.20;63.60;;;;;;5030184;28;20479;-69
2023/10/22 08:26:59;;;;;;;4.40;1.40;;;18.30;62.70;;;;;;5031392;28;20684;-69
2023/10/22 08:29:26;;;;;;;2.47;1.20;;;18.40;63.00;;;;;;5030601;28;20798;-69
2023/10/22 08:31:53;;;;;;;2.37;1.17;;;18.60;62.60;;;;;;5016659;28;20230;-69
2023/10/22 08:34:22;;;;;;;3.07;1.60;;;18.70;62.00;;;;;;5033056;28;20445;-69
2023/10/22 08:36:49;;;;;;;4.80;1.60;;;18.70;62.00;;;;;;5019203;28;20199;-69
2023/10/22 08:39:16;;;;;;;2.07;1.43;;;18.80;61.60;;;;;;5013769;28;20696;-69
2023/10/22 08:41:48;;;;;;;4.20;1.67;;;19.00;61.10;;;;;;5025600;28;20199;-69
2023/10/22 08:44:16;;;;;;;4.00;1.47;;;19.10;61.40;;;;;;5020757;28;20636;-68
2023/10/22 08:46:43;;;;;;;2.57;1.40;;;19.20;60.80;;;;;;5033958;28;20207;-70
2023/10/22 08:49:12;;;;;;;5.63;1.70;;;19.40;61.00;;;;;;5031930;28;20213;-69
2023/10/22 08:51:40;;;;;;;4.47;1.80;;;19.50;60.70;;;;;;5015119;28;20237;-69
2023/10/22 08:54:10;;;;;;;2.93;1.50;;;19.50;59.90;;;;;;5019154;28;20204;-69
2023/10/22 08:56:37;;;;;;;4.00;1.70;;;19.60;59.70;;;;;;5029589;28;20697;-67
2023/10/22 08:59:05;;;;;;;3.90;1.80;;;19.60;59.90;;;;;;5033016;28;20289;-69
2023/10/22 09:01:32;;;;;;;5.27;2.17;;;19.70;59.00;;;;;;5031834;28;20221;-69
2023/10/22 09:03:59;;;;;;;5.40;1.40;;;19.60;58.90;;;;;;5013042;28;20230;-70
2023/10/22 09:06:26;;;;;;;4.73;1.50;;;19.60;58.60;;;;;;5016108;28;20194;-69
2023/10/22 09:08:55;;;;;;;3.20;1.40;;;19.60;58.70;;;;;;5032612;28;20202;-70
2023/10/22 09:11:24;;;;;;;4.60;1.67;;;19.60;58.90;;;;;;5023871;28;20778;-70
2023/10/22 09:13:51;;;;;;;5.70;1.87;;;19.70;58.80;;;;;;5021128;28;20209;-69
2023/10/22 09:16:33;;;;;;;4.33;1.60;;;19.70;58.60;;;;;;5027180;28;20242;-70
2023/10/22 09:19:01;;;;;;;3.97;1.63;;;19.80;58.00;;;;;;5030826;28;20238;-70
2023/10/22 09:21:42;;;;;;;2.33;1.40;;;19.80;58.00;;;;;;5029770;28;20549;-70
2023/10/22 09:24:11;;;;;;;5.40;1.73;;;20.00;57.80;;;;;;5021598;28;20608;-70
2023/10/22 09:26:43;;;;;;;3.43;1.40;;;20.00;57.80;;;;;;5029436;28;20199;-70
2023/10/22 09:29:10;;;;;;;5.63;1.73;;;20.10;57.70;;;;;;5021385;28;20587;-70
2023/10/22 09:31:37;;;;;;;4.00;1.50;;;20.00;57.50;;;;;;5022021;28;20242;-70
2023/10/22 09:34:04;;;;;;;3.47;1.60;;;20.00;57.50;;;;;;5034479;28;20197;-70
2023/10/22 09:36:30;;;;;;;5.67;1.60;;;20.00;57.20;;;;;;5048834;28;20222;-69
2023/10/22 09:38:58;;;;;;;5.10;1.50;;;20.20;57.30;;;;;;5025040;28;20393;-70
2023/10/22 09:41:30;;;;;;;3.33;1.70;;;20.20;56.60;;;;;;5019576;28;20289;-70
2023/10/22 09:43:58;;;;;;;3.60;1.90;;;20.10;56.70;;;;;;5026535;28;20206;-70
2023/10/22 09:46:29;;;;;;;3.53;1.47;;;20.20;56.90;;;;;;4967948;28;20207;-70
2023/10/22 09:48:59;;;;;;;6.70;1.83;;;20.40;57.10;;;;;;5015896;28;20225;-70
2023/10/22 09:51:30;;;;;;;5.97;1.90;;;20.60;56.90;;;;;;5027327;28;20196;-70
2023/10/22 09:53:58;;;;;;;5.03;1.50;;;20.80;56.80;;;;;;5013415;28;20226;-71
2023/10/22 09:56:25;;;;;;;9.43;2.27;;;20.80;55.20;;;;;;5021978;28;20702;-70
2023/10/22 09:59:03;;;;;;;4.47;1.80;;;20.70;55.30;;;;;;5032506;28;20226;-70
2023/10/22 10:01:32;;;;;;;5.97;2.00;;;20.80;55.50;;;;;;5030771;28;20233;-69
2023/10/22 10:04:00;;;;;;;5.80;1.93;;;20.70;54.30;;;;;;5019486;28;20203;-70
2023/10/22 10:06:27;;;;;;;4.37;1.60;;;20.60;54.70;;;;;;5023941;28;20209;-71
2023/10/22 10:08:54;;;;;;;5.50;1.67;;;20.80;55.30;;;;;;5027555;28;20199;-70
2023/10/22 10:11:23;;;;;;;4.77;1.63;;;20.90;55.50;;;;;;5019093;28;20199;-70
2023/10/22 10:13:50;;;;;;;5.30;1.50;;;21.10;54.60;;;;;;5022480;28;20865;-70
2023/10/22 10:16:23;;;;;;;6.27;1.90;;;21.40;54.60;;;;;;5013385;28;20265;-70
2023/10/22 10:19:03;;;;;;;6.63;2.30;;;21.50;54.30;;;;;;5014148;28;20831;-70
2023/10/22 10:21:47;;;;;;;5.07;1.77;;;21.60;53.10;;;;;;5023914;28;20701;-70
2023/10/22 10:24:24;;;;;;;4.77;1.77;;;21.60;53.50;;;;;;5045619;28;20679;-70
2023/10/22 10:26:52;;;;;;;3.23;1.60;;;21.70;53.80;;;;;;5033308;28;20241;-70
2023/10/22 10:29:21;;;;;;;5.83;1.63;;;21.70;53.20;;;;;;5032533;28;20206;-70
2023/10/22 10:31:51;;;;;;;5.13;1.63;;;21.80;53.30;;;;;;5013362;28;20254;-69
2023/10/22 10:34:39;;;;;;;4.57;2.00;;;21.80;53.00;;;;;;5029190;28;20594;-70
2023/10/22 10:37:14;;;;;;;7.00;2.37;;;21.90;52.30;;;;;;5031551;28;20256;-70
2023/10/22 10:39:42;;;;;;;3.70;1.70;;;21.90;52.20;;;;;;5032552;28;20550;-69
2023/10/22 10:42:09;;;;;;;4.60;2.20;;;21.80;52.10;;;;;;5028043;28;20219;-69
2023/10/22 10:45:04;;;;;;;6.00;1.97;;;21.60;52.50;;;;;;5012504;28;20302;-69
2023/10/22 10:47:33;;;;;;;5.33;1.63;;;21.50;51.80;;;;;;5004663;28;20226;-69
2023/10/22 10:50:06;;;;;;;3.50;1.53;;;21.50;52.50;;;;;;5012698;28;20590;-69
2023/10/22 10:52:58;;;;;;;3.27;1.50;;;21.50;52.20;;;;;;5012402;28;20302;-70
2023/10/22 10:55:34;;;;;;;5.10;1.90;;;21.50;51.90;;;;;;5021863;28;20195;-70
2023/10/22 10:58:02;;;;;;;4.53;1.80;;;21.50;51.90;;;;;;5019974;28;20246;-70
2023/10/22 11:00:31;;;;;;;5.30;2.00;;;21.60;52.20;;;;;;5027071;28;20230;-70
2023/10/22 11:03:04;;;;;;;4.43;1.90;;;21.60;51.80;;;;;;5031463;28;20207;-70
2023/10/22 11:05:39;;;;;;;4.00;1.70;;;21.50;51.10;;;;;;5029799;28;20230;-69
2023/10/22 11:08:07;;;;;;;4.20;1.33;;;21.40;51.10;;;;;;5028465;28;20729;-70
2023/10/22 11:10:35;;;;;;;5.23;1.67;;;21.30;52.10;;;;;;5029810;28;20264;-70
2023/10/22 11:13:04;;;;;;;5.33;2.07;;;21.30;52.70;;;;;;5052396;28;20206;-70
2023/10/22 11:15:36;;;;;;;4.27;1.70;;;21.50;52.70;;;;;;5051291;28;20203;-69
2023/10/22 11:18:06;;;;;;;4.97;2.00;;;21.70;52.20;;;;;;5049777;28;20214;-70
2023/10/22 11:20:34;;;;;;;3.77;2.00;;;21.90;52.10;;;;;;5037329;28;20266;-70
2023/10/22 11:23:01;;;;;;;5.30;1.70;;;22.10;51.90;;;;;;5048147;28;20238;-70
2023/10/22 11:25:28;;;;;;;3.93;1.43;;;22.20;51.40;;;;;;5042695;28;20261;-70
2023/10/22 11:27:58;;;;;;;3.50;1.50;;;22.20;51.40;;;;;;5038438;28;20201;-71
2023/10/22 11:30:36;;;;;;;3.57;1.60;;;22.30;51.60;;;;;;5033593;28;20290;-71
2023/10/22 11:33:06;;;;;;;3.50;1.30;;;22.50;50.80;;;;;;5023336;28;20235;-70
2023/10/22 11:35:37;;;;;;;2.80;1.60;;;22.70;50.70;;;;;;5040565;28;20264;-68
2023/10/22 11:38:04;;;;;;;5.03;1.60;;;22.80;50.30;;;;;;5025494;28;20714;-69
2023/10/22 11:40:34;;;;;;;4.53;2.03;;;22.90;50.10;;;;;;5033400;28;20245;-71
2023/10/22 11:43:04;;;;;;;4.57;1.80;;;23.00;49.80;;;;;;5034467;28;20289;-71
2023/10/22 11:45:34;;;;;;;4.07;1.70;;;22.90;48.70;;;;;;5023505;28;20233;-71
2023/10/22 11:48:16;;;;;;;4.17;1.43;;;22.70;49.70;;;;;;5012246;28;20207;-71
2023/10/22 11:50:46;;;;;;;6.57;1.87;;;22.40;49.60;;;;;;5020790;28;20199;-71
2023/10/22 11:53:13;;;;;;;3.17;1.33;;;22.40;50.20;;;;;;5024523;28;20203;-70
2023/10/22 11:55:40;;;;;;;3.67;1.43;;;22.50;50.30;;;;;;5029927;28;20238;-70
2023/10/22 11:58:17;;;;;;;2.77;1.57;;;22.50;50.00;;;;;;5030624;28;20276;-71
2023/10/22 12:00:44;;;;;;;1.87;1.30;;;22.50;49.30;;;;;;5031186;28;20230;-71
2023/10/22 12:03:11;;;;;;;4.30;1.70;;;22.70;50.10;;;;;;5031226;28;20234;-71
2023/10/22 12:05:40;;;;;;;3.03;1.50;;;22.90;49.40;;;;;;5031650;28;20216;-70
2023/10/22 12:08:06;;;;;;;3.73;1.40;;;22.90;49.40;;;;;;5034563;28;20297;-70
2023/10/22 12:10:34;;;;;;;3.00;1.60;;;22.70;49.40;;;;;;5034341;28;20253;-70
2023/10/22 12:13:01;;;;;;;3.03;1.57;;;22.60;49.40;;;;;;5034520;28;20245;-71
2023/10/22 12:15:28;;;;;;;3.10;1.50;;;22.90;49.60;;;;;;5034826;28;20643;-71
2023/10/22 12:17:55;;;;;;;3.80;1.60;;;23.30;49.50;;;;;;5034744;28;20609;-72
2023/10/22 12:20:22;;;;;;;2.80;1.20;;;23.70;48.70;;;;;;5034116;28;20254;-70
2023/10/22 12:22:51;;;;;;;4.23;1.67;;;23.80;47.90;;;;;;5034353;28;20601;-70
2023/10/22 12:25:18;;;;;;;3.00;1.53;;;23.70;47.80;;;;;;5033907;28;20785;-70
2023/10/22 12:27:45;;;;;;;4.13;2.13;;;23.60;48.30;;;;;;5034509;28;20283;-70
2023/10/22 12:30:12;;;;;;;3.47;1.50;;;23.40;48.50;;;;;;5034374;28;20662;-70
2023/10/22 12:32:39;;;;;;;4.37;1.53;;;23.30;48.80;;;;;;4999304;28;20285;-71
2023/10/22 12:35:07;;;;;;;3.10;1.40;;;23.20;48.50;;;;;;5034127;28;20262;-70
2023/10/22 12:37:35;;;;;;;4.83;1.70;;;23.10;48.50;;;;;;5034227;28;20293;-70
2023/10/22 12:40:05;;;;;;;2.90;1.30;;;23.30;48.70;;;;;;5033486;28;20202;-70
2023/10/22 12:42:32;;;;;;;3.47;1.40;;;23.40;48.10;;;;;;5033940;28;20630;-70
2023/10/22 12:44:59;;;;;;;2.97;1.60;;;23.70;48.30;;;;;;5033962;28;20214;-70
2023/10/22 12:47:26;;;;;;;4.43;1.70;;;24.40;47.80;;;;;;5033857;28;20230;-70
2023/10/22 12:49:53;;;;;;;4.30;1.50;;;25.00;46.50;;;;;;5033753;28;20305;-70
2023/10/22 12:52:20;;;;;;;3.57;1.73;;;25.20;45.20;;;;;;5033975;28;20202;-70